Time;durP1;ratioP1;P1;durP2;ratioP2;P2;SDS_P1;SDS_P2;PMS_P1;PMS_P2;Temp;Humidity;BMP_temperature;BMP_pressure;BME280_temperature;BME280_humidity;BME280_pressure;Samples;Min_cycle;Max_cycle;Signal;HPM_P1;HPM_P2
2024/01/11 00:01:26;;;;;;;6.75;3.80;;;-5.00;65.70;;;;;;5051434;28;20043;-74
2024/01/11 00:03:52;;;;;;;8.27;5.57;;;-5.00;65.60;;;;;;5051860;28;20033;-74
2024/01/11 00:06:18;;;;;;;21.92;8.70;;;-5.00;65.60;;;;;;5051048;28;20048;-74
2024/01/11 00:08:44;;;;;;;17.70;7.72;;;-5.00;65.60;;;;;;5050658;28;20044;-73
2024/01/11 00:11:11;;;;;;;9.38;7.03;;;-5.00;65.50;;;;;;5051555;28;20045;-73
2024/01/11 00:13:36;;;;;;;;;;;-5.00;65.40;;;;;;5046070;28;20110;-73
2024/01/11 00:16:03;;;;;;;21.20;7.68;;;-5.00;65.30;;;;;;5050077;28;19920;-73
2024/01/11 00:18:29;;;;;;;11.95;4.40;;;-5.00;65.50;;;;;;5046245;28;20036;-73
2024/01/11 00:20:55;;;;;;;15.65;5.15;;;-5.00;65.50;;;;;;5057877;28;20029;-73
2024/01/11 00:23:21;;;;;;;11.82;7.30;;;-5.10;65.60;;;;;;5051695;28;20033;-73
2024/01/11 00:25:47;;;;;;;6.90;4.47;;;-5.10;65.50;;;;;;5049729;28;20128;-73
2024/01/11 00:28:13;;;;;;;12.45;6.15;;;-5.10;65.60;;;;;;5050113;28;20048;-73
2024/01/11 00:30:39;;;;;;;8.45;5.05;;;-5.10;65.90;;;;;;5051134;28;20037;-73
2024/01/11 00:33:06;;;;;;;14.95;5.53;;;-5.10;66.40;;;;;;5051423;28;20493;-74
2024/01/11 00:35:32;;;;;;;9.05;6.90;;;-5.20;66.40;;;;;;5051361;28;20603;-73
2024/01/11 00:37:58;;;;;;;17.85;7.65;;;-5.20;66.60;;;;;;5050146;28;20033;-73
2024/01/11 00:40:24;;;;;;;11.32;8.02;;;-5.20;66.40;;;;;;5032883;28;20353;-73
2024/01/11 00:42:50;;;;;;;15.43;6.65;;;-5.20;66.10;;;;;;5050333;28;20052;-73
2024/01/11 00:45:16;;;;;;;10.57;3.75;;;-5.20;66.40;;;;;;5033433;28;20029;-73
2024/01/11 00:47:44;;;;;;;5.47;4.65;;;-5.20;66.20;;;;;;5051529;28;20532;-72
2024/01/11 00:50:10;;;;;;;9.30;6.90;;;-5.20;66.10;;;;;;5050565;28;20036;-73
2024/01/11 00:52:36;;;;;;;9.00;5.53;;;-5.20;66.10;;;;;;5051413;28;20029;-73
2024/01/11 00:55:02;;;;;;;12.40;8.50;;;-5.20;66.00;;;;;;5033338;28;20071;-73
2024/01/11 00:57:28;;;;;;;;;;;-5.20;66.00;;;;;;5033776;28;20112;-73
2024/01/11 00:59:54;;;;;;;8.45;3.72;;;-5.20;66.10;;;;;;5051691;28;20182;-73
2024/01/11 01:02:20;;;;;;;;;;;-5.30;66.00;;;;;;5049921;28;20127;-73
2024/01/11 01:04:46;;;;;;;3.33;2.33;;;-5.30;65.80;;;;;;5051533;28;19921;-73
2024/01/11 01:07:12;;;;;;;8.10;3.22;;;-5.30;66.00;;;;;;5049861;28;20473;-73
2024/01/11 01:09:38;;;;;;;;;;;-5.40;66.00;;;;;;5050836;28;20299;-73
2024/01/11 01:12:05;;;;;;;2.28;1.88;;;-5.40;66.00;;;;;;5051030;28;19920;-73
2024/01/11 01:14:31;;;;;;;6.47;4.80;;;-5.40;65.70;;;;;;5051618;28;20034;-73
2024/01/11 01:16:57;;;;;;;16.88;2.92;;;-5.40;65.80;;;;;;5050576;28;20086;-73
2024/01/11 01:19:23;;;;;;;3.70;3.35;;;-5.40;66.00;;;;;;5055198;28;20049;-73
2024/01/11 01:21:49;;;;;;;;;;;-5.50;66.20;;;;;;5053668;28;20095;-73
2024/01/11 01:24:15;;;;;;;7.82;4.03;;;-5.50;66.30;;;;;;5055268;28;19924;-73
2024/01/11 01:26:41;;;;;;;8.35;3.63;;;-5.50;66.40;;;;;;5054950;28;20449;-73
2024/01/11 01:29:07;;;;;;;4.47;2.67;;;-5.50;66.40;;;;;;5054729;28;20048;-73
2024/01/11 01:31:37;;;;;;;2.72;1.63;;;-5.60;66.50;;;;;;5054567;28;20033;-73
2024/01/11 01:34:04;;;;;;;1.52;1.08;;;-5.60;66.60;;;;;;5047133;28;20033;-73
2024/01/11 01:36:30;;;;;;;4.60;2.25;;;-5.60;65.90;;;;;;5054770;28;20066;-73
2024/01/11 01:38:56;;;;;;;;;;;-5.50;66.20;;;;;;5053816;28;20037;-73
2024/01/11 01:41:22;;;;;;;5.50;3.40;;;-5.60;66.00;;;;;;5053886;28;19924;-73
2024/01/11 01:43:48;;;;;;;;;;;-5.60;66.20;;;;;;5053789;28;20091;-73
2024/01/11 01:46:23;;;;;;;3.65;2.40;;;-5.60;66.10;;;;;;5054399;28;19916;-73
2024/01/11 01:48:51;;;;;;;2.97;1.50;;;-5.60;66.00;;;;;;5054703;28;20128;-73
2024/01/11 01:51:18;;;;;;;1.65;0.90;;;-5.70;66.20;;;;;;5044319;28;20041;-73
2024/01/11 01:53:44;;;;;;;6.63;4.25;;;-5.70;66.40;;;;;;5052996;28;20029;-73
2024/01/11 01:56:10;;;;;;;6.72;3.10;;;-5.70;65.90;;;;;;5052688;28;20090;-73
2024/01/11 01:58:37;;;;;;;3.22;2.20;;;-5.80;65.80;;;;;;5052840;28;20049;-73
2024/01/11 02:01:03;;;;;;;5.60;2.70;;;-5.70;65.70;;;;;;5052297;28;20135;-72
2024/01/11 02:03:30;;;;;;;1.13;0.77;;;-5.70;66.00;;;;;;5053064;28;20083;-73
2024/01/11 02:05:56;;;;;;;1.75;1.63;;;-5.70;65.80;;;;;;5052723;28;20389;-73
2024/01/11 02:08:25;;;;;;;;;;;-5.70;65.90;;;;;;5053181;28;20413;-73
2024/01/11 02:10:52;;;;;;;2.38;1.52;;;-5.80;65.00;;;;;;5036013;28;19920;-73
2024/01/11 02:13:20;;;;;;;2.90;1.80;;;-5.80;65.40;;;;;;5052782;28;20079;-73
2024/01/11 02:15:46;;;;;;;10.18;3.28;;;-5.80;65.40;;;;;;5052757;28;20040;-73
2024/01/11 02:18:12;;;;;;;;;;;-5.80;65.50;;;;;;5052982;28;20095;-73
2024/01/11 02:20:38;;;;;;;2.30;2.13;;;-5.80;65.50;;;;;;5051967;28;19920;-73
2024/01/11 02:23:24;;;;;;;6.18;2.40;;;-5.90;65.50;;;;;;5052640;28;20037;-72
2024/01/11 02:25:50;;;;;;;2.63;2.40;;;-5.90;65.60;;;;;;5044252;28;20048;-73
2024/01/11 02:28:19;;;;;;;6.55;4.20;;;-5.90;65.60;;;;;;5051961;28;20470;-73
2024/01/11 02:30:45;;;;;;;1.85;1.23;;;-5.90;65.40;;;;;;5052849;28;20478;-72
2024/01/11 02:33:15;;;;;;;1.40;1.30;;;-5.90;65.60;;;;;;5053773;28;20029;-72
2024/01/11 02:35:42;;;;;;;4.50;3.67;;;-5.90;65.60;;;;;;5053047;28;20025;-73
2024/01/11 02:38:09;;;;;;;4.15;2.15;;;-5.90;65.40;;;;;;5052545;28;20214;-73
2024/01/11 02:40:37;;;;;;;6.13;2.83;;;-5.90;65.70;;;;;;5051771;28;20060;-72
2024/01/11 02:43:22;;;;;;;3.47;2.70;;;-5.90;65.80;;;;;;5051825;28;20084;-73
2024/01/11 02:45:48;;;;;;;5.05;1.55;;;-5.90;66.20;;;;;;5053458;28;20394;-73
2024/01/11 02:48:14;;;;;;;;;;;-6.00;66.20;;;;;;5044270;28;20107;-72
2024/01/11 02:50:40;;;;;;;19.42;3.45;;;-6.00;66.40;;;;;;5052921;28;20296;-73
2024/01/11 02:53:06;;;;;;;4.93;2.70;;;-6.00;66.30;;;;;;5052737;28;20413;-72
2024/01/11 02:55:32;;;;;;;1.77;1.65;;;-6.00;66.10;;;;;;5051795;28;20051;-73
2024/01/11 02:57:58;;;;;;;4.32;1.95;;;-6.00;66.00;;;;;;5051767;28;20037;-72
2024/01/11 03:00:24;;;;;;;2.28;1.95;;;-6.10;65.90;;;;;;5051166;28;20118;-73
2024/01/11 03:02:50;;;;;;;;;;;-6.10;65.90;;;;;;5052618;28;20037;-73
2024/01/11 03:05:16;;;;;;;1.85;1.20;;;-6.10;65.80;;;;;;5051257;28;19916;-73
2024/01/11 03:07:42;;;;;;;;;;;-6.10;66.90;;;;;;5052369;28;20124;-73
2024/01/11 03:10:08;;;;;;;3.13;2.60;;;-6.10;65.70;;;;;;5050929;28;19982;-73
2024/01/11 03:12:35;;;;;;;1.75;1.58;;;-6.20;65.70;;;;;;5051492;28;20123;-73
2024/01/11 03:15:01;;;;;;;6.93;3.30;;;-6.20;65.90;;;;;;5052892;28;20037;-73
2024/01/11 03:17:27;;;;;;;;;;;-6.20;65.80;;;;;;5051972;28;20029;-72
2024/01/11 03:19:53;;;;;;;3.85;3.55;;;-6.20;65.60;;;;;;5051460;28;19921;-72
2024/01/11 03:22:19;;;;;;;2.45;1.73;;;-6.20;65.70;;;;;;5051008;28;20044;-73
2024/01/11 03:24:45;;;;;;;1.85;1.70;;;-6.20;65.70;;;;;;5051076;28;20037;-73
2024/01/11 03:27:11;;;;;;;;;;;-6.20;65.70;;;;;;5051964;28;20033;-73
2024/01/11 03:29:37;;;;;;;11.85;2.85;;;-6.30;65.50;;;;;;5052831;28;20026;-72
2024/01/11 03:32:03;;;;;;;5.68;2.70;;;-6.30;65.60;;;;;;5043428;28;20033;-72
2024/01/11 03:34:29;;;;;;;13.65;4.35;;;-6.40;64.90;;;;;;5051322;28;20438;-73
2024/01/11 03:36:56;;;;;;;5.78;2.85;;;-6.40;65.60;;;;;;5050808;28;20487;-73
2024/01/11 03:39:22;;;;;;;7.50;5.18;;;-6.40;65.70;;;;;;5052900;28;20033;-73
2024/01/11 03:41:48;;;;;;;5.72;3.35;;;-6.40;65.60;;;;;;5051453;28;20095;-73
2024/01/11 03:44:14;;;;;;;14.32;5.43;;;-6.40;65.50;;;;;;5045192;28;20543;-73
2024/01/11 03:46:40;;;;;;;;;;;-6.40;65.20;;;;;;5051642;28;20120;-73
2024/01/11 03:49:07;;;;;;;2.97;2.30;;;-6.50;65.00;;;;;;5050695;28;19920;-72
2024/01/11 03:51:34;;;;;;;7.68;4.75;;;-6.50;65.20;;;;;;5033997;28;20060;-72
2024/01/11 03:54:00;;;;;;;2.72;2.17;;;-6.60;65.20;;;;;;5051982;28;20030;-73
2024/01/11 03:56:26;;;;;;;;;;;-6.60;65.60;;;;;;5051480;28;20120;-73
2024/01/11 03:58:52;;;;;;;5.35;2.63;;;-6.60;65.40;;;;;;5051804;28;20288;-73
2024/01/11 04:01:19;;;;;;;10.05;1.65;;;-6.60;65.40;;;;;;5051277;28;20048;-73
2024/01/11 04:03:45;;;;;;;12.73;2.83;;;-6.70;65.40;;;;;;5052062;28;20029;-73
2024/01/11 04:06:37;;;;;;;7.85;4.20;;;-6.70;65.50;;;;;;5051631;28;20056;-73
2024/01/11 04:09:04;;;;;;;12.02;5.72;;;-6.70;65.40;;;;;;5052427;28;20069;-72
2024/01/11 04:11:30;;;;;;;7.43;3.65;;;-6.70;65.30;;;;;;5051316;28;20037;-73
2024/01/11 04:13:56;;;;;;;;;;;-6.70;65.60;;;;;;5052591;28;20454;-73
2024/01/11 04:16:22;;;;;;;3.30;2.92;;;-6.70;65.80;;;;;;5050531;28;19996;-72
2024/01/11 04:18:48;;;;;;;12.15;5.88;;;-6.70;66.10;;;;;;5051857;28;20738;-73
2024/01/11 04:21:32;;;;;;;;;;;-6.70;66.40;;;;;;5052112;28;20037;-73
2024/01/11 04:23:59;;;;;;;9.10;6.53;;;-6.70;66.60;;;;;;5043542;28;19972;-72
2024/01/11 04:26:25;;;;;;;9.57;5.53;;;-6.80;66.60;;;;;;5051896;28;20037;-73
2024/01/11 04:28:51;;;;;;;;;;;-6.80;66.70;;;;;;5050874;28;20037;-72
2024/01/11 04:31:18;;;;;;;6.65;4.90;;;-6.90;66.70;;;;;;5049501;28;19928;-73
2024/01/11 04:33:45;;;;;;;14.70;5.38;;;-6.90;67.10;;;;;;5033836;28;20536;-72
2024/01/11 04:36:12;;;;;;;6.55;4.15;;;-6.90;67.20;;;;;;5050255;28;20025;-73
2024/01/11 04:38:39;;;;;;;6.90;3.53;;;-7.00;67.60;;;;;;5050214;28;20445;-72
2024/01/11 04:41:25;;;;;;;5.80;3.85;;;-7.00;67.10;;;;;;5049798;28;20297;-73
2024/01/11 04:43:51;;;;;;;15.18;8.60;;;-6.90;67.70;;;;;;5050153;28;20043;-73
2024/01/11 04:46:19;;;;;;;22.60;5.18;;;-6.90;67.50;;;;;;5050425;28;20429;-73
2024/01/11 04:48:47;;;;;;;6.35;4.55;;;-6.90;67.30;;;;;;5051575;28;20500;-73
2024/01/11 04:51:14;;;;;;;15.23;6.82;;;-7.00;67.30;;;;;;5050602;28;20041;-73
2024/01/11 04:53:41;;;;;;;10.98;6.28;;;-7.00;67.40;;;;;;5053770;28;20399;-73
2024/01/11 04:56:08;;;;;;;7.93;5.20;;;-7.00;67.50;;;;;;5054222;28;20087;-72
2024/01/11 04:58:37;;;;;;;15.98;6.63;;;-7.00;67.30;;;;;;5055563;28;20053;-72
2024/01/11 05:01:05;;;;;;;51.67;8.88;;;-7.00;67.50;;;;;;5054725;28;20047;-73
2024/01/11 05:03:31;;;;;;;17.63;11.88;;;-7.00;67.40;;;;;;5070304;28;20496;-72
2024/01/11 05:05:58;;;;;;;14.35;12.52;;;-7.00;67.50;;;;;;5054034;28;20059;-73
2024/01/11 05:08:26;;;;;;;12.32;8.43;;;-7.10;67.50;;;;;;5055045;28;20120;-73
2024/01/11 05:10:52;;;;;;;5.30;4.25;;;-7.00;67.40;;;;;;5036884;28;20106;-73
2024/01/11 05:13:19;;;;;;;9.63;8.13;;;-7.00;67.40;;;;;;5055044;28;20393;-72
2024/01/11 05:15:45;;;;;;;14.88;6.53;;;-7.00;67.20;;;;;;5046329;28;20493;-72
2024/01/11 05:18:12;;;;;;;28.08;11.18;;;-7.10;67.00;;;;;;5037234;28;20136;-72
2024/01/11 05:20:39;;;;;;;8.30;4.55;;;-7.10;67.10;;;;;;5035346;28;20030;-73
2024/01/11 05:23:05;;;;;;;8.20;4.28;;;-7.10;67.00;;;;;;5053846;28;20047;-72
2024/01/11 05:28:16;;;;;;;13.25;4.70;;;-7.10;66.40;;;;;;5063677;28;20408;-73
2024/01/11 05:30:42;;;;;;;;;;;-7.00;66.80;;;;;;5036448;28;20130;-73
2024/01/11 05:33:08;;;;;;;19.38;6.95;;;-7.00;66.70;;;;;;5054484;28;20000;-73
2024/01/11 05:35:34;;;;;;;3.70;2.92;;;-7.10;66.70;;;;;;5054564;28;20106;-73
2024/01/11 05:38:00;;;;;;;10.63;8.13;;;-7.10;67.00;;;;;;5052911;28;20033;-73
2024/01/11 05:40:27;;;;;;;10.90;5.63;;;-7.10;67.10;;;;;;5054217;28;20044;-72
2024/01/11 05:42:53;;;;;;;9.30;5.25;;;-7.10;67.10;;;;;;5053416;28;20037;-73
2024/01/11 05:45:19;;;;;;;;;;;-7.10;67.00;;;;;;5053746;28;20395;-73
2024/01/11 05:47:45;;;;;;;5.25;2.75;;;-7.10;66.90;;;;;;5053164;28;19912;-72
2024/01/11 05:50:12;;;;;;;3.63;3.33;;;-7.10;66.60;;;;;;5035368;28;20703;-73
2024/01/11 05:52:38;;;;;;;6.07;4.22;;;-7.10;66.40;;;;;;5054566;28;20040;-72
2024/01/11 05:55:05;;;;;;;2.55;1.50;;;-7.20;66.10;;;;;;5053377;28;20040;-72
2024/01/11 05:57:31;;;;;;;17.17;6.75;;;-7.20;66.10;;;;;;5052853;28;20386;-73
2024/01/11 05:59:56;;;;;;;;;;;-7.20;66.20;;;;;;5053765;28;20091;-72
2024/01/11 06:02:22;;;;;;;31.45;11.95;;;-7.20;66.20;;;;;;5053516;28;19928;-72
2024/01/11 06:04:49;;;;;;;4.47;2.30;;;-7.20;66.10;;;;;;5053337;28;20048;-72
2024/01/11 06:07:16;;;;;;;10.15;5.13;;;-7.20;66.90;;;;;;5052519;28;20048;-73
2024/01/11 06:09:42;;;;;;;7.45;4.13;;;-7.20;65.90;;;;;;5052919;28;20060;-73
2024/01/11 06:12:08;;;;;;;;;;;-7.20;65.90;;;;;;5052658;28;20489;-73
2024/01/11 06:14:35;;;;;;;7.78;3.45;;;-7.30;65.70;;;;;;5035907;28;20356;-73
2024/01/11 06:17:01;;;;;;;9.48;8.73;;;-7.30;65.70;;;;;;5052803;28;20490;-72
2024/01/11 06:19:27;;;;;;;;;;;-7.30;65.80;;;;;;5054385;28;20033;-72
2024/01/11 06:21:53;;;;;;;7.88;4.43;;;-7.40;65.60;;;;;;5051951;28;20416;-73
2024/01/11 06:24:19;;;;;;;;;;;-7.40;65.50;;;;;;5053195;28;20111;-73
2024/01/11 06:26:45;;;;;;;2.35;1.65;;;-7.40;65.70;;;;;;5052395;28;19916;-72
2024/01/11 06:29:11;;;;;;;;;;;-7.40;65.90;;;;;;5053444;28;20402;-73
2024/01/11 06:31:37;;;;;;;4.82;4.13;;;-7.40;65.90;;;;;;5051696;28;19927;-72
2024/01/11 06:34:03;;;;;;;;;;;-7.50;65.90;;;;;;5052876;28;20036;-73
2024/01/11 06:36:30;;;;;;;5.00;4.40;;;-7.50;66.30;;;;;;5052203;28;19943;-73
2024/01/11 06:38:56;;;;;;;12.05;3.95;;;-7.50;66.20;;;;;;5053391;28;20033;-72
2024/01/11 06:41:22;;;;;;;;;;;-7.50;66.20;;;;;;5053841;28;20535;-72
2024/01/11 06:43:48;;;;;;;10.57;5.82;;;-7.50;66.00;;;;;;5053450;28;19921;-73
2024/01/11 06:46:19;;;;;;;11.57;4.72;;;-7.40;66.20;;;;;;5053335;28;20033;-73
2024/01/11 06:48:45;;;;;;;7.57;5.32;;;-7.40;66.10;;;;;;5052071;28;20029;-72
2024/01/11 06:51:14;;;;;;;;;;;-7.40;66.00;;;;;;5052822;28;20106;-73
2024/01/11 06:53:40;;;;;;;4.93;3.33;;;-7.40;65.60;;;;;;5051072;28;19984;-73
2024/01/11 06:56:25;;;;;;;;;;;-7.30;65.60;;;;;;5051295;28;20029;-73
2024/01/11 06:58:52;;;;;;;8.68;4.70;;;-7.30;65.50;;;;;;5051969;28;20029;-72
2024/01/11 07:01:18;;;;;;;8.90;7.00;;;-7.30;65.50;;;;;;5050081;28;20044;-72
2024/01/11 07:03:44;;;;;;;8.75;7.88;;;-7.30;64.80;;;;;;5034064;28;20021;-72
2024/01/11 07:06:10;;;;;;;;;;;-7.20;65.30;;;;;;5052409;28;20048;-73
2024/01/11 07:08:36;;;;;;;9.95;3.92;;;-7.20;65.30;;;;;;5050986;28;19921;-72
2024/01/11 07:11:03;;;;;;;;;;;-7.20;65.30;;;;;;5051986;28;20406;-72
2024/01/11 07:13:31;;;;;;;7.37;6.73;;;-7.10;65.30;;;;;;5050493;28;20331;-73
2024/01/11 07:15:58;;;;;;;14.80;7.43;;;-7.10;65.30;;;;;;5049601;28;20039;-73
2024/01/11 07:18:25;;;;;;;12.18;10.98;;;-7.10;65.40;;;;;;5051833;28;20028;-72
2024/01/11 07:20:58;;;;;;;9.60;5.82;;;-7.00;65.40;;;;;;5050109;28;20079;-73
2024/01/11 07:23:24;;;;;;;10.43;4.47;;;-7.00;65.40;;;;;;5050077;28;20029;-73
2024/01/11 07:25:50;;;;;;;8.38;7.32;;;-6.90;65.60;;;;;;5050287;28;20048;-72
2024/01/11 07:28:17;;;;;;;18.98;8.00;;;-6.90;65.50;;;;;;5051292;28;20033;-73
2024/01/11 07:30:43;;;;;;;6.82;3.65;;;-6.80;65.40;;;;;;5049711;28;20061;-72
2024/01/11 07:33:10;;;;;;;14.30;8.32;;;-6.80;65.40;;;;;;5050319;28;20059;-73
2024/01/11 07:35:37;;;;;;;5.63;5.13;;;-6.70;65.30;;;;;;5050951;28;20086;-72
2024/01/11 07:38:03;;;;;;;11.77;7.00;;;-6.60;64.70;;;;;;5033591;28;20037;-73
2024/01/11 07:40:29;;;;;;;6.55;4.57;;;-6.60;65.20;;;;;;5050512;28;20033;-73
2024/01/11 07:42:55;;;;;;;7.60;5.78;;;-6.50;65.30;;;;;;5033427;28;20041;-73
2024/01/11 07:45:21;;;;;;;;;;;-6.40;65.20;;;;;;5050798;28;20508;-73
2024/01/11 07:47:47;;;;;;;4.88;2.95;;;-6.40;65.10;;;;;;5050959;28;20003;-73
2024/01/11 07:50:14;;;;;;;4.88;3.30;;;-6.40;65.00;;;;;;5050828;28;20068;-73
2024/01/11 07:52:43;;;;;;;;;;;-6.30;65.10;;;;;;5050515;28;20032;-72
2024/01/11 07:55:29;;;;;;;10.93;8.43;;;-6.20;64.60;;;;;;5049521;28;20385;-73
2024/01/11 07:57:55;;;;;;;12.20;6.57;;;-6.20;65.30;;;;;;5032847;28;20033;-73
2024/01/11 08:00:21;;;;;;;;;;;-6.00;65.40;;;;;;5051314;28;20041;-73
2024/01/11 08:02:47;;;;;;;11.30;8.57;;;-5.90;64.90;;;;;;5050178;28;19916;-73
2024/01/11 08:05:14;;;;;;;8.70;4.97;;;-5.80;65.90;;;;;;5049335;28;20497;-73
2024/01/11 08:07:42;;;;;;;7.53;6.55;;;-5.70;65.90;;;;;;5049613;28;20033;-73
2024/01/11 08:10:11;;;;;;;4.20;3.78;;;-5.50;65.60;;;;;;5049838;28;20470;-73
2024/01/11 08:12:37;;;;;;;8.95;8.02;;;-5.40;65.70;;;;;;5049942;28;20032;-73
2024/01/11 08:15:04;;;;;;;;;;;-5.30;66.00;;;;;;5049995;28;20069;-73
2024/01/11 08:17:30;;;;;;;13.85;6.50;;;-5.20;65.20;;;;;;5050564;28;19916;-72
2024/01/11 08:19:56;;;;;;;9.13;3.63;;;-5.00;65.30;;;;;;5049369;28;20033;-73
2024/01/11 08:22:23;;;;;;;10.85;9.95;;;-4.90;65.20;;;;;;5048726;28;20132;-73
2024/01/11 08:24:49;;;;;;;15.18;5.13;;;-4.70;64.90;;;;;;5051289;28;20044;-72
2024/01/11 08:27:17;;;;;;;5.93;3.88;;;-4.50;64.90;;;;;;5048517;28;20047;-72
2024/01/11 08:29:43;;;;;;;5.30;4.72;;;-4.40;64.20;;;;;;5049302;28;20025;-73
2024/01/11 08:32:09;;;;;;;4.47;3.65;;;-4.20;63.70;;;;;;5050184;28;20041;-73
2024/01/11 08:34:36;;;;;;;12.75;6.57;;;-4.10;64.10;;;;;;5050819;28;20108;-72
2024/01/11 08:37:02;;;;;;;9.35;5.82;;;-3.90;64.00;;;;;;5049455;28;20032;-72
2024/01/11 08:39:28;;;;;;;;;;;-3.80;63.70;;;;;;5025478;28;20072;-73
2024/01/11 08:41:54;;;;;;;8.18;6.20;;;-3.70;63.90;;;;;;5049910;28;19928;-72
2024/01/11 08:44:20;;;;;;;6.32;5.18;;;-3.80;63.60;;;;;;5032616;28;20033;-73
2024/01/11 08:46:46;;;;;;;9.75;7.25;;;-3.70;63.80;;;;;;5050105;28;20028;-72
2024/01/11 08:49:12;;;;;;;17.25;9.25;;;-3.70;63.60;;;;;;5049140;28;20056;-72
2024/01/11 08:51:38;;;;;;;11.05;5.25;;;-3.60;63.90;;;;;;5050173;28;20033;-73
2024/01/11 08:54:08;;;;;;;10.93;5.18;;;-3.50;64.00;;;;;;5050314;28;20045;-73
2024/01/11 08:56:35;;;;;;;13.40;5.35;;;-3.40;63.90;;;;;;5033112;28;20049;-72
2024/01/11 08:59:01;;;;;;;7.70;5.35;;;-3.30;64.00;;;;;;5048854;28;20140;-72
2024/01/11 09:01:29;;;;;;;10.85;5.88;;;-3.20;63.80;;;;;;5048408;28;20357;-73
2024/01/11 09:03:55;;;;;;;9.77;3.80;;;-3.00;63.80;;;;;;5049306;28;20041;-73
2024/01/11 09:06:21;;;;;;;8.60;7.18;;;-2.70;63.60;;;;;;5049870;28;20079;-72
2024/01/11 09:08:47;;;;;;;13.90;5.38;;;-1.80;61.70;;;;;;5050366;28;20045;-72
2024/01/11 09:11:13;;;;;;;12.60;8.52;;;-0.80;59.00;;;;;;5048221;28;20532;-73
2024/01/11 09:13:40;;;;;;;7.80;4.43;;;-0.10;56.80;;;;;;5048844;28;20033;-73
2024/01/11 09:16:06;;;;;;;14.38;6.95;;;-0.30;56.80;;;;;;5048868;28;20037;-73
2024/01/11 09:18:32;;;;;;;5.15;3.75;;;-0.50;57.80;;;;;;5048689;28;20390;-73
2024/01/11 09:20:59;;;;;;;5.10;3.17;;;-0.40;58.60;;;;;;5049710;28;20048;-73
2024/01/11 09:23:25;;;;;;;10.15;9.10;;;-0.10;57.80;;;;;;5032099;28;20489;-73
2024/01/11 09:25:51;;;;;;;8.15;4.63;;;0.30;57.00;;;;;;5048882;28;20056;-73
2024/01/11 09:28:17;;;;;;;9.57;5.90;;;0.50;57.00;;;;;;5049041;28;20418;-73
2024/01/11 09:30:43;;;;;;;9.00;4.72;;;0.90;55.70;;;;;;5049093;28;20071;-72
2024/01/11 09:33:09;;;;;;;8.95;6.30;;;0.90;54.70;;;;;;5032257;28;20485;-73
2024/01/11 09:35:35;;;;;;;13.27;6.80;;;0.90;54.90;;;;;;5048365;28;20037;-73
2024/01/11 09:38:01;;;;;;;6.25;4.40;;;1.10;54.40;;;;;;5051079;28;20087;-73
2024/01/11 09:40:27;;;;;;;7.20;4.03;;;1.00;54.30;;;;;;5053434;28;20090;-72
2024/01/11 09:42:53;;;;;;;11.48;4.85;;;1.00;54.80;;;;;;5053352;28;20037;-73
2024/01/11 09:45:19;;;;;;;6.40;4.60;;;0.70;54.30;;;;;;5053352;28;20037;-72
2024/01/11 09:47:46;;;;;;;7.78;5.60;;;0.80;55.00;;;;;;5035270;28;20025;-72
2024/01/11 09:50:18;;;;;;;13.02;6.85;;;0.80;55.00;;;;;;5034910;28;20044;-73
2024/01/11 09:53:05;;;;;;;11.85;4.93;;;1.40;53.70;;;;;;5053164;28;20155;-73
2024/01/11 09:55:31;;;;;;;16.25;7.13;;;1.20;53.80;;;;;;5051841;28;20401;-73
2024/01/11 09:58:00;;;;;;;4.00;2.95;;;1.30;54.20;;;;;;5053305;28;20047;-73
2024/01/11 10:00:27;;;;;;;9.77;5.22;;;1.30;53.80;;;;;;5051563;28;20068;-73
2024/01/11 10:02:54;;;;;;;9.10;3.70;;;1.60;53.00;;;;;;5053439;28;20044;-73
2024/01/11 10:05:20;;;;;;;5.85;4.25;;;2.10;52.50;;;;;;5052040;28;20481;-73
2024/01/11 10:07:46;;;;;;;7.43;5.32;;;2.40;51.50;;;;;;5051850;28;20040;-72
2024/01/11 10:10:15;;;;;;;6.63;2.85;;;2.40;51.00;;;;;;5051026;28;20033;-73
2024/01/11 10:12:41;;;;;;;8.60;5.22;;;2.80;50.60;;;;;;5052894;28;20048;-73
2024/01/11 10:15:09;;;;;;;6.97;3.75;;;3.70;48.50;;;;;;5051548;28;20029;-73
2024/01/11 10:17:54;;;;;;;3.25;2.25;;;4.20;46.10;;;;;;5052653;28;20024;-73
2024/01/11 10:20:23;;;;;;;8.68;3.83;;;4.20;45.40;;;;;;5043685;28;20086;-72
2024/01/11 10:22:50;;;;;;;11.30;3.60;;;3.60;46.50;;;;;;5053116;28;20486;-73
2024/01/11 10:25:17;;;;;;;5.28;3.55;;;3.50;47.80;;;;;;5050993;28;20083;-73
2024/01/11 10:27:45;;;;;;;6.88;4.35;;;4.20;47.10;;;;;;5051711;28;20029;-73
2024/01/11 10:30:13;;;;;;;5.10;3.92;;;4.40;46.50;;;;;;5052090;28;20025;-73
2024/01/11 10:32:40;;;;;;;8.15;3.28;;;4.90;45.20;;;;;;5051739;28;20029;-73
2024/01/11 10:35:06;;;;;;;9.10;4.20;;;5.10;44.70;;;;;;5050730;28;20029;-73
2024/01/11 10:37:33;;;;;;;7.65;4.03;;;5.40;42.90;;;;;;5052278;28;20210;-73
2024/01/11 10:40:09;;;;;;;9.18;5.72;;;5.20;43.40;;;;;;5051214;28;20040;-73
2024/01/11 10:42:40;;;;;;;10.88;6.50;;;5.00;43.60;;;;;;5051034;28;20049;-73
2024/01/11 10:45:22;;;;;;;4.93;3.63;;;5.30;42.60;;;;;;5051080;28;20397;-73
2024/01/11 10:48:12;;;;;;;9.73;5.60;;;6.10;41.00;;;;;;5034661;28;20040;-73
2024/01/11 10:50:43;;;;;;;9.57;5.13;;;6.10;40.30;;;;;;5060549;28;20041;-73
2024/01/11 10:53:54;;;;;;;8.63;4.13;;;5.90;39.30;;;;;;5050675;28;20120;-73
2024/01/11 10:56:20;;;;;;;6.10;3.42;;;5.40;41.20;;;;;;5050696;28;20049;-73
2024/01/11 10:58:47;;;;;;;;;;;5.40;41.20;;;;;;5051536;28;20044;-72
2024/01/11 11:01:14;;;;;;;7.78;5.05;;;5.30;41.70;;;;;;5050081;28;20393;-73
2024/01/11 11:03:42;;;;;;;14.55;6.70;;;5.40;41.60;;;;;;5051014;28;20040;-73
2024/01/11 11:06:09;;;;;;;7.60;4.45;;;5.50;40.90;;;;;;5050328;28;20040;-73
2024/01/11 11:08:37;;;;;;;9.40;4.10;;;5.60;41.70;;;;;;5034365;28;20039;-73
2024/01/11 11:13:51;;;;;;;7.70;3.75;;;7.70;37.50;;;;;;5045378;28;20047;-73
2024/01/11 11:16:17;;;;;;;12.57;3.97;;;9.00;34.80;;;;;;5050344;28;20037;-72
2024/01/11 11:18:43;;;;;;;4.05;2.47;;;9.40;33.60;;;;;;5051770;28;20032;-73
2024/01/11 11:21:13;;;;;;;7.90;4.43;;;9.00;34.00;;;;;;5033347;28;20502;-72
2024/01/11 11:23:39;;;;;;;12.77;5.60;;;8.80;34.30;;;;;;5050542;28;20470;-73
2024/01/11 11:26:08;;;;;;;10.27;5.28;;;8.60;34.50;;;;;;5050415;28;20043;-74
2024/01/11 11:28:37;;;;;;;5.93;2.38;;;9.20;34.50;;;;;;5051748;28;20037;-73
2024/01/11 11:31:03;;;;;;;7.45;2.95;;;9.30;33.20;;;;;;5050992;28;20509;-73
2024/01/11 11:33:30;;;;;;;;;;;9.40;31.90;;;;;;5050648;28;20104;-73
2024/01/11 11:36:17;;;;;;;7.35;4.10;;;9.10;31.90;;;;;;5049725;28;19917;-73
2024/01/11 11:38:43;;;;;;;3.55;2.17;;;8.30;33.40;;;;;;5042635;28;20037;-73
2024/01/11 11:41:10;;;;;;;6.93;4.10;;;7.40;35.80;;;;;;5049681;28;20068;-73
2024/01/11 11:43:36;;;;;;;2.58;2.25;;;6.60;37.20;;;;;;5049938;28;20091;-73
2024/01/11 11:46:07;;;;;;;4.30;2.83;;;6.50;37.90;;;;;;5050839;28;20087;-73
2024/01/11 11:51:20;;;;;;;3.45;1.85;;;8.10;34.50;;;;;;5050451;28;20060;-73
2024/01/11 11:53:51;;;;;;;5.00;2.88;;;8.00;33.70;;;;;;5051036;28;20029;-74
2024/01/11 11:56:22;;;;;;;6.72;2.90;;;7.70;33.70;;;;;;5049809;28;20425;-73
2024/01/11 11:58:54;;;;;;;15.27;5.68;;;7.10;35.30;;;;;;5041282;28;20052;-73
2024/01/11 12:01:20;;;;;;;3.25;1.75;;;6.80;35.70;;;;;;5061259;28;20040;-73
2024/01/11 12:03:50;;;;;;;3.05;2.75;;;6.80;36.30;;;;;;5049421;28;20055;-73
2024/01/11 12:06:18;;;;;;;5.07;2.13;;;7.70;34.40;;;;;;5049285;28;20075;-73
2024/01/11 12:08:47;;;;;;;8.52;3.95;;;8.40;33.70;;;;;;5050383;28;20381;-74
2024/01/11 12:11:32;;;;;;;11.25;1.73;;;8.70;32.60;;;;;;5048970;28;20156;-73
2024/01/11 12:13:58;;;;;;;1.30;1.17;;;8.30;32.90;;;;;;5043056;28;20033;-73
2024/01/11 12:16:24;;;;;;;6.65;2.97;;;7.80;34.20;;;;;;5050730;28;20041;-74
2024/01/11 12:18:51;;;;;;;7.00;3.75;;;7.40;34.70;;;;;;5049052;28;20039;-74
2024/01/11 12:21:18;;;;;;;2.42;1.63;;;7.40;34.20;;;;;;5050145;28;20041;-74
2024/01/11 12:23:44;;;;;;;2.97;1.35;;;7.00;34.50;;;;;;5050488;28;20037;-73
2024/01/11 12:26:12;;;;;;;3.00;2.30;;;6.60;35.40;;;;;;5049541;28;20035;-73
2024/01/11 12:28:40;;;;;;;5.20;1.83;;;6.40;36.00;;;;;;5050863;28;20374;-74
2024/01/11 12:31:07;;;;;;;3.47;2.13;;;6.20;36.40;;;;;;5048640;28;20079;-74
2024/01/11 12:33:34;;;;;;;3.08;2.33;;;6.10;36.70;;;;;;5032672;28;20067;-73
2024/01/11 12:36:01;;;;;;;11.30;4.65;;;6.10;36.30;;;;;;5032754;28;20032;-73
2024/01/11 12:38:27;;;;;;;3.58;2.47;;;6.20;36.90;;;;;;5049454;28;20037;-73
2024/01/11 12:40:53;;;;;;;4.40;2.45;;;6.30;37.30;;;;;;5048694;28;20041;-73
2024/01/11 12:43:19;;;;;;;;;;;6.00;37.00;;;;;;5051047;28;20094;-74
2024/01/11 12:45:45;;;;;;;3.65;2.35;;;6.10;37.50;;;;;;5049241;28;20392;-73
2024/01/11 12:48:14;;;;;;;3.83;3.13;;;6.00;37.40;;;;;;5032492;28;20440;-73
2024/01/11 12:50:41;;;;;;;2.63;1.30;;;6.10;37.60;;;;;;5049739;28;20041;-73
2024/01/11 12:53:09;;;;;;;6.85;1.98;;;6.10;37.30;;;;;;5049461;28;20108;-74
2024/01/11 12:55:36;;;;;;;6.55;1.85;;;6.00;36.80;;;;;;5048471;28;20432;-73
2024/01/11 12:58:21;;;;;;;3.30;1.77;;;6.00;37.00;;;;;;5041279;28;20060;-73
2024/01/11 13:00:49;;;;;;;0.70;0.65;;;6.10;37.40;;;;;;5049589;28;20124;-73
2024/01/11 13:03:15;;;;;;;1.52;1.10;;;6.00;37.10;;;;;;5050793;28;20484;-74
2024/01/11 13:05:41;;;;;;;10.30;3.13;;;6.60;36.80;;;;;;5048887;28;20032;-74
2024/01/11 13:08:08;;;;;;;;;;;6.60;36.10;;;;;;5050914;28;20048;-74